sensor_id;sensor_type;location;lat;lon;timestamp;temperature;humidity
50955;DHT22;36966;48.064;-0.792;2024-02-26T00:01:59;16.10;55.70
50955;DHT22;36966;48.064;-0.792;2024-02-26T00:04:18;16.10;55.80
50955;DHT22;36966;48.064;-0.792;2024-02-26T00:06:38;16.10;55.80
50955;DHT22;36966;48.064;-0.792;2024-02-26T00:09:00;16.10;55.80
50955;DHT22;36966;48.064;-0.792;2024-02-26T00:11:20;16.10;55.70
50955;DHT22;36966;48.064;-0.792;2024-02-26T00:13:39;16.10;55.70
50955;DHT22;36966;48.064;-0.792;2024-02-26T00:15:58;16.10;55.70
50955;DHT22;36966;48.064;-0.792;2024-02-26T00:18:18;16.10;55.70
50955;DHT22;36966;48.064;-0.792;2024-02-26T00:20:37;16.10;55.70
50955;DHT22;36966;48.064;-0.792;2024-02-26T00:22:58;16.00;55.80
50955;DHT22;36966;48.064;-0.792;2024-02-26T00:25:17;16.00;55.70
50955;DHT22;36966;48.064;-0.792;2024-02-26T00:27:36;16.10;55.70
50955;DHT22;36966;48.064;-0.792;2024-02-26T00:29:55;16.00;55.70
50955;DHT22;36966;48.064;-0.792;2024-02-26T00:32:15;16.10;55.70
50955;DHT22;36966;48.064;-0.792;2024-02-26T00:34:34;16.00;55.70
50955;DHT22;36966;48.064;-0.792;2024-02-26T00:36:53;16.00;55.70
50955;DHT22;36966;48.064;-0.792;2024-02-26T00:39:12;16.10;55.70
50955;DHT22;36966;48.064;-0.792;2024-02-26T00:41:32;16.00;55.70
50955;DHT22;36966;48.064;-0.792;2024-02-26T00:43:51;16.10;55.70
50955;DHT22;36966;48.064;-0.792;2024-02-26T00:46:10;16.00;55.70
50955;DHT22;36966;48.064;-0.792;2024-02-26T00:48:30;16.00;55.70
50955;DHT22;36966;48.064;-0.792;2024-02-26T00:50:49;16.10;55.70
50955;DHT22;36966;48.064;-0.792;2024-02-26T00:53:08;16.10;55.60
50955;DHT22;36966;48.064;-0.792;2024-02-26T00:55:28;16.10;55.70
50955;DHT22;36966;48.064;-0.792;2024-02-26T00:57:47;16.10;55.70
50955;DHT22;36966;48.064;-0.792;2024-02-26T01:00:06;16.00;55.60
50955;DHT22;36966;48.064;-0.792;2024-02-26T01:02:27;16.10;55.70
50955;DHT22;36966;48.064;-0.792;2024-02-26T01:04:46;16.00;55.70
50955;DHT22;36966;48.064;-0.792;2024-02-26T01:07:06;16.10;55.70
50955;DHT22;36966;48.064;-0.792;2024-02-26T01:09:25;16.00;55.70
50955;DHT22;36966;48.064;-0.792;2024-02-26T01:11:44;16.00;55.70
50955;DHT22;36966;48.064;-0.792;2024-02-26T01:14:03;16.10;55.70
50955;DHT22;36966;48.064;-0.792;2024-02-26T01:16:23;16.10;55.70
50955;DHT22;36966;48.064;-0.792;2024-02-26T01:18:42;16.10;55.70
50955;DHT22;36966;48.064;-0.792;2024-02-26T01:21:01;16.10;55.60
50955;DHT22;36966;48.064;-0.792;2024-02-26T01:23:21;16.00;55.60
50955;DHT22;36966;48.064;-0.792;2024-02-26T01:25:40;16.10;55.70
50955;DHT22;36966;48.064;-0.792;2024-02-26T01:27:59;16.00;55.60
50955;DHT22;36966;48.064;-0.792;2024-02-26T01:30:18;16.00;55.70
50955;DHT22;36966;48.064;-0.792;2024-02-26T01:32:37;16.00;55.60
50955;DHT22;36966;48.064;-0.792;2024-02-26T01:34:57;16.00;55.70
50955;DHT22;36966;48.064;-0.792;2024-02-26T01:37:16;16.00;55.70
50955;DHT22;36966;48.064;-0.792;2024-02-26T01:39:35;16.00;55.70
50955;DHT22;36966;48.064;-0.792;2024-02-26T01:41:54;16.00;55.60
50955;DHT22;36966;48.064;-0.792;2024-02-26T01:44:14;16.00;55.70
50955;DHT22;36966;48.064;-0.792;2024-02-26T01:46:34;16.00;55.70
50955;DHT22;36966;48.064;-0.792;2024-02-26T01:48:54;16.00;55.60
50955;DHT22;36966;48.064;-0.792;2024-02-26T01:51:13;16.00;55.70
50955;DHT22;36966;48.064;-0.792;2024-02-26T01:53:33;16.00;55.60
50955;DHT22;36966;48.064;-0.792;2024-02-26T01:55:52;16.00;55.60
50955;DHT22;36966;48.064;-0.792;2024-02-26T01:58:11;16.00;55.60
50955;DHT22;36966;48.064;-0.792;2024-02-26T02:00:31;16.00;55.60
50955;DHT22;36966;48.064;-0.792;2024-02-26T02:02:50;16.00;55.60
50955;DHT22;36966;48.064;-0.792;2024-02-26T02:05:09;16.00;55.50
50955;DHT22;36966;48.064;-0.792;2024-02-26T02:07:29;16.00;55.50
50955;DHT22;36966;48.064;-0.792;2024-02-26T02:09:48;16.00;55.50
50955;DHT22;36966;48.064;-0.792;2024-02-26T02:12:08;16.00;55.50
50955;DHT22;36966;48.064;-0.792;2024-02-26T02:14:27;16.00;55.60
50955;DHT22;36966;48.064;-0.792;2024-02-26T02:16:47;16.00;55.60
50955;DHT22;36966;48.064;-0.792;2024-02-26T02:19:06;16.00;55.60
50955;DHT22;36966;48.064;-0.792;2024-02-26T02:21:25;16.00;55.60
50955;DHT22;36966;48.064;-0.792;2024-02-26T02:23:45;16.00;55.60
50955;DHT22;36966;48.064;-0.792;2024-02-26T02:26:05;16.00;55.60
50955;DHT22;36966;48.064;-0.792;2024-02-26T02:28:25;16.00;55.60
50955;DHT22;36966;48.064;-0.792;2024-02-26T02:30:44;16.00;55.60
50955;DHT22;36966;48.064;-0.792;2024-02-26T02:33:03;16.00;55.60
50955;DHT22;36966;48.064;-0.792;2024-02-26T02:35:23;16.00;55.60
50955;DHT22;36966;48.064;-0.792;2024-02-26T02:37:42;16.00;55.60
50955;DHT22;36966;48.064;-0.792;2024-02-26T02:40:01;16.00;55.50
50955;DHT22;36966;48.064;-0.792;2024-02-26T02:42:21;16.00;55.50
50955;DHT22;36966;48.064;-0.792;2024-02-26T02:44:40;16.00;55.50
50955;DHT22;36966;48.064;-0.792;2024-02-26T02:46:59;16.00;55.50
50955;DHT22;36966;48.064;-0.792;2024-02-26T02:49:18;16.00;55.50
50955;DHT22;36966;48.064;-0.792;2024-02-26T02:51:38;16.00;55.60
50955;DHT22;36966;48.064;-0.792;2024-02-26T02:53:57;16.00;55.60
50955;DHT22;36966;48.064;-0.792;2024-02-26T02:56:16;16.00;55.60
50955;DHT22;36966;48.064;-0.792;2024-02-26T02:58:35;16.00;55.60
50955;DHT22;36966;48.064;-0.792;2024-02-26T03:00:55;16.00;55.60
50955;DHT22;36966;48.064;-0.792;2024-02-26T03:03:14;16.00;55.60
50955;DHT22;36966;48.064;-0.792;2024-02-26T03:05:33;16.00;55.60
50955;DHT22;36966;48.064;-0.792;2024-02-26T03:07:53;16.00;55.60
50955;DHT22;36966;48.064;-0.792;2024-02-26T03:10:12;16.00;55.60
50955;DHT22;36966;48.064;-0.792;2024-02-26T03:12:33;16.00;55.50
50955;DHT22;36966;48.064;-0.792;2024-02-26T03:14:52;16.00;55.60
50955;DHT22;36966;48.064;-0.792;2024-02-26T03:17:13;16.00;55.60
50955;DHT22;36966;48.064;-0.792;2024-02-26T03:19:32;16.00;55.60
50955;DHT22;36966;48.064;-0.792;2024-02-26T03:21:51;16.00;55.60
50955;DHT22;36966;48.064;-0.792;2024-02-26T03:24:11;16.00;55.60
50955;DHT22;36966;48.064;-0.792;2024-02-26T03:26:30;16.00;55.60
50955;DHT22;36966;48.064;-0.792;2024-02-26T03:28:50;16.00;55.60
50955;DHT22;36966;48.064;-0.792;2024-02-26T03:31:09;16.00;55.70
50955;DHT22;36966;48.064;-0.792;2024-02-26T03:33:31;16.00;55.70
50955;DHT22;36966;48.064;-0.792;2024-02-26T03:35:50;16.00;55.70
50955;DHT22;36966;48.064;-0.792;2024-02-26T03:38:09;16.00;55.70
50955;DHT22;36966;48.064;-0.792;2024-02-26T03:40:29;16.00;55.70
50955;DHT22;36966;48.064;-0.792;2024-02-26T03:42:48;16.00;55.70
50955;DHT22;36966;48.064;-0.792;2024-02-26T03:45:07;16.00;55.70
50955;DHT22;36966;48.064;-0.792;2024-02-26T03:47:27;16.00;55.70
50955;DHT22;36966;48.064;-0.792;2024-02-26T03:49:47;16.00;55.70
50955;DHT22;36966;48.064;-0.792;2024-02-26T03:52:06;16.00;55.70
50955;DHT22;36966;48.064;-0.792;2024-02-26T03:54:25;16.00;55.70
50955;DHT22;36966;48.064;-0.792;2024-02-26T03:56:45;16.00;55.70
50955;DHT22;36966;48.064;-0.792;2024-02-26T03:59:04;16.00;55.60
50955;DHT22;36966;48.064;-0.792;2024-02-26T04:01:23;15.90;55.70
50955;DHT22;36966;48.064;-0.792;2024-02-26T04:03:42;16.00;55.60
50955;DHT22;36966;48.064;-0.792;2024-02-26T04:06:03;16.00;55.60
50955;DHT22;36966;48.064;-0.792;2024-02-26T04:08:22;16.00;55.50
50955;DHT22;36966;48.064;-0.792;2024-02-26T04:10:42;16.00;55.50
50955;DHT22;36966;48.064;-0.792;2024-02-26T04:13:01;16.00;55.50
50955;DHT22;36966;48.064;-0.792;2024-02-26T04:15:20;16.00;55.50
50955;DHT22;36966;48.064;-0.792;2024-02-26T04:17:40;15.90;55.50
50955;DHT22;36966;48.064;-0.792;2024-02-26T04:19:59;15.90;55.40
50955;DHT22;36966;48.064;-0.792;2024-02-26T04:22:18;16.00;55.50
50955;DHT22;36966;48.064;-0.792;2024-02-26T04:24:37;15.90;55.50
50955;DHT22;36966;48.064;-0.792;2024-02-26T04:26:57;15.90;55.40
50955;DHT22;36966;48.064;-0.792;2024-02-26T04:29:16;15.90;55.50
50955;DHT22;36966;48.064;-0.792;2024-02-26T04:31:36;15.90;55.40
50955;DHT22;36966;48.064;-0.792;2024-02-26T04:33:56;15.90;55.40
50955;DHT22;36966;48.064;-0.792;2024-02-26T04:36:15;15.90;55.40
50955;DHT22;36966;48.064;-0.792;2024-02-26T04:38:35;15.90;55.40
50955;DHT22;36966;48.064;-0.792;2024-02-26T04:40:54;15.90;55.40
50955;DHT22;36966;48.064;-0.792;2024-02-26T04:43:13;15.90;55.30
50955;DHT22;36966;48.064;-0.792;2024-02-26T04:45:33;15.90;55.30
50955;DHT22;36966;48.064;-0.792;2024-02-26T04:47:53;16.00;55.30
50955;DHT22;36966;48.064;-0.792;2024-02-26T04:50:12;16.00;55.20
50955;DHT22;36966;48.064;-0.792;2024-02-26T04:52:31;15.90;55.20
50955;DHT22;36966;48.064;-0.792;2024-02-26T04:54:51;15.90;55.20
50955;DHT22;36966;48.064;-0.792;2024-02-26T04:57:10;15.90;55.20
50955;DHT22;36966;48.064;-0.792;2024-02-26T04:59:29;15.90;55.20
50955;DHT22;36966;48.064;-0.792;2024-02-26T05:01:48;15.90;55.30
50955;DHT22;36966;48.064;-0.792;2024-02-26T05:04:08;15.90;55.20
50955;DHT22;36966;48.064;-0.792;2024-02-26T05:06:27;15.90;55.20
50955;DHT22;36966;48.064;-0.792;2024-02-26T05:08:46;15.90;55.20
50955;DHT22;36966;48.064;-0.792;2024-02-26T05:11:05;15.90;55.20
50955;DHT22;36966;48.064;-0.792;2024-02-26T05:13:25;15.80;55.20
50955;DHT22;36966;48.064;-0.792;2024-02-26T05:15:44;15.90;55.20
50955;DHT22;36966;48.064;-0.792;2024-02-26T05:18:05;15.90;55.10
50955;DHT22;36966;48.064;-0.792;2024-02-26T05:20:26;15.90;55.10
50955;DHT22;36966;48.064;-0.792;2024-02-26T05:22:46;15.90;55.10
50955;DHT22;36966;48.064;-0.792;2024-02-26T05:25:06;15.90;55.10
50955;DHT22;36966;48.064;-0.792;2024-02-26T05:27:25;15.90;55.10
50955;DHT22;36966;48.064;-0.792;2024-02-26T05:29:45;15.90;55.10
50955;DHT22;36966;48.064;-0.792;2024-02-26T05:32:04;15.90;55.10
50955;DHT22;36966;48.064;-0.792;2024-02-26T05:34:24;15.90;55.10
50955;DHT22;36966;48.064;-0.792;2024-02-26T05:36:43;15.90;55.00
50955;DHT22;36966;48.064;-0.792;2024-02-26T05:39:02;15.90;55.10
50955;DHT22;36966;48.064;-0.792;2024-02-26T05:41:22;15.90;55.10
50955;DHT22;36966;48.064;-0.792;2024-02-26T05:43:42;15.80;55.10
50955;DHT22;36966;48.064;-0.792;2024-02-26T05:46:01;15.90;55.10
50955;DHT22;36966;48.064;-0.792;2024-02-26T05:48:21;15.80;55.10
50955;DHT22;36966;48.064;-0.792;2024-02-26T05:50:40;15.80;55.00
50955;DHT22;36966;48.064;-0.792;2024-02-26T05:53:00;15.90;55.00
50955;DHT22;36966;48.064;-0.792;2024-02-26T05:55:19;15.90;55.00
50955;DHT22;36966;48.064;-0.792;2024-02-26T05:57:39;15.80;55.00
50955;DHT22;36966;48.064;-0.792;2024-02-26T05:59:58;15.90;55.00
50955;DHT22;36966;48.064;-0.792;2024-02-26T06:02:21;15.80;55.00
50955;DHT22;36966;48.064;-0.792;2024-02-26T06:04:41;15.80;55.00
50955;DHT22;36966;48.064;-0.792;2024-02-26T06:07:00;15.80;55.00
50955;DHT22;36966;48.064;-0.792;2024-02-26T06:09:19;15.80;55.00
50955;DHT22;36966;48.064;-0.792;2024-02-26T06:11:38;15.80;55.00
50955;DHT22;36966;48.064;-0.792;2024-02-26T06:13:58;15.80;55.00
50955;DHT22;36966;48.064;-0.792;2024-02-26T06:16:17;15.80;55.00
50955;DHT22;36966;48.064;-0.792;2024-02-26T06:18:36;15.80;55.00
50955;DHT22;36966;48.064;-0.792;2024-02-26T06:20:55;15.80;55.00
50955;DHT22;36966;48.064;-0.792;2024-02-26T06:23:15;15.80;55.00
50955;DHT22;36966;48.064;-0.792;2024-02-26T06:25:34;15.80;55.00
50955;DHT22;36966;48.064;-0.792;2024-02-26T06:27:54;15.80;54.90
50955;DHT22;36966;48.064;-0.792;2024-02-26T06:30:14;15.80;54.90
50955;DHT22;36966;48.064;-0.792;2024-02-26T06:32:33;15.80;54.90
50955;DHT22;36966;48.064;-0.792;2024-02-26T06:34:53;15.80;54.90
50955;DHT22;36966;48.064;-0.792;2024-02-26T06:37:12;15.80;54.90
50955;DHT22;36966;48.064;-0.792;2024-02-26T06:39:31;15.80;54.90
50955;DHT22;36966;48.064;-0.792;2024-02-26T06:41:51;15.80;54.90
50955;DHT22;36966;48.064;-0.792;2024-02-26T06:44:13;15.80;54.90
50955;DHT22;36966;48.064;-0.792;2024-02-26T06:46:33;15.80;55.00
50955;DHT22;36966;48.064;-0.792;2024-02-26T06:48:52;15.80;55.00
50955;DHT22;36966;48.064;-0.792;2024-02-26T06:51:12;15.80;54.90
50955;DHT22;36966;48.064;-0.792;2024-02-26T06:53:31;15.80;54.90
50955;DHT22;36966;48.064;-0.792;2024-02-26T06:55:50;15.80;55.00
50955;DHT22;36966;48.064;-0.792;2024-02-26T06:58:10;15.80;55.00
50955;DHT22;36966;48.064;-0.792;2024-02-26T07:00:29;15.80;54.90
50955;DHT22;36966;48.064;-0.792;2024-02-26T07:02:48;15.80;54.90
50955;DHT22;36966;48.064;-0.792;2024-02-26T07:05:08;15.80;54.90
50955;DHT22;36966;48.064;-0.792;2024-02-26T07:07:27;15.80;54.90
50955;DHT22;36966;48.064;-0.792;2024-02-26T07:09:47;15.80;54.90
50955;DHT22;36966;48.064;-0.792;2024-02-26T07:12:07;15.80;54.90
50955;DHT22;36966;48.064;-0.792;2024-02-26T07:14:26;15.80;54.90
50955;DHT22;36966;48.064;-0.792;2024-02-26T07:16:45;15.80;54.90
50955;DHT22;36966;48.064;-0.792;2024-02-26T07:19:05;15.80;55.00
50955;DHT22;36966;48.064;-0.792;2024-02-26T07:21:24;15.80;55.00
50955;DHT22;36966;48.064;-0.792;2024-02-26T07:23:43;15.80;55.00
50955;DHT22;36966;48.064;-0.792;2024-02-26T07:26:02;15.80;55.00
50955;DHT22;36966;48.064;-0.792;2024-02-26T07:28:22;15.80;55.00
50955;DHT22;36966;48.064;-0.792;2024-02-26T07:30:41;15.80;55.00
50955;DHT22;36966;48.064;-0.792;2024-02-26T07:33:00;15.80;55.00
50955;DHT22;36966;48.064;-0.792;2024-02-26T07:35:20;15.80;55.00
50955;DHT22;36966;48.064;-0.792;2024-02-26T07:37:39;15.80;55.00
50955;DHT22;36966;48.064;-0.792;2024-02-26T07:39:58;15.80;55.00
50955;DHT22;36966;48.064;-0.792;2024-02-26T07:42:18;15.80;55.00
50955;DHT22;36966;48.064;-0.792;2024-02-26T07:44:38;15.80;55.00
50955;DHT22;36966;48.064;-0.792;2024-02-26T07:46:57;15.80;55.00
50955;DHT22;36966;48.064;-0.792;2024-02-26T07:49:16;15.80;55.00
50955;DHT22;36966;48.064;-0.792;2024-02-26T07:51:36;15.80;55.00
50955;DHT22;36966;48.064;-0.792;2024-02-26T07:53:55;15.80;55.10
50955;DHT22;36966;48.064;-0.792;2024-02-26T07:56:14;15.80;55.20
50955;DHT22;36966;48.064;-0.792;2024-02-26T07:58:33;15.80;55.10
50955;DHT22;36966;48.064;-0.792;2024-02-26T08:00:52;15.80;55.20
50955;DHT22;36966;48.064;-0.792;2024-02-26T08:03:12;15.80;55.20
50955;DHT22;36966;48.064;-0.792;2024-02-26T08:05:31;15.80;55.20
50955;DHT22;36966;48.064;-0.792;2024-02-26T08:07:51;15.90;55.20
50955;DHT22;36966;48.064;-0.792;2024-02-26T08:10:10;15.80;55.20
50955;DHT22;36966;48.064;-0.792;2024-02-26T08:12:33;15.90;55.10
50955;DHT22;36966;48.064;-0.792;2024-02-26T08:14:52;15.90;55.20
50955;DHT22;36966;48.064;-0.792;2024-02-26T08:17:11;15.90;55.20
50955;DHT22;36966;48.064;-0.792;2024-02-26T08:19:31;15.80;55.20
50955;DHT22;36966;48.064;-0.792;2024-02-26T08:21:50;15.90;55.20
50955;DHT22;36966;48.064;-0.792;2024-02-26T08:24:09;15.80;55.20
50955;DHT22;36966;48.064;-0.792;2024-02-26T08:26:28;15.90;55.40
50955;DHT22;36966;48.064;-0.792;2024-02-26T08:28:48;15.80;55.40
50955;DHT22;36966;48.064;-0.792;2024-02-26T08:31:08;15.80;55.40
50955;DHT22;36966;48.064;-0.792;2024-02-26T08:33:27;15.90;55.40
50955;DHT22;36966;48.064;-0.792;2024-02-26T08:35:46;15.90;55.40
50955;DHT22;36966;48.064;-0.792;2024-02-26T08:38:06;15.90;55.40
50955;DHT22;36966;48.064;-0.792;2024-02-26T08:40:25;15.90;55.40
50955;DHT22;36966;48.064;-0.792;2024-02-26T08:42:44;15.90;55.40
50955;DHT22;36966;48.064;-0.792;2024-02-26T08:45:04;15.90;55.40
50955;DHT22;36966;48.064;-0.792;2024-02-26T08:47:23;15.90;55.40
50955;DHT22;36966;48.064;-0.792;2024-02-26T08:49:44;15.90;55.40
50955;DHT22;36966;48.064;-0.792;2024-02-26T08:52:03;15.90;55.40
50955;DHT22;36966;48.064;-0.792;2024-02-26T08:54:23;15.90;55.40
50955;DHT22;36966;48.064;-0.792;2024-02-26T08:56:43;15.90;55.40
50955;DHT22;36966;48.064;-0.792;2024-02-26T08:59:02;15.90;55.40
50955;DHT22;36966;48.064;-0.792;2024-02-26T09:01:22;15.90;55.50
50955;DHT22;36966;48.064;-0.792;2024-02-26T09:03:42;15.90;55.50
50955;DHT22;36966;48.064;-0.792;2024-02-26T09:06:01;15.90;55.50
50955;DHT22;36966;48.064;-0.792;2024-02-26T09:08:21;15.80;55.50
50955;DHT22;36966;48.064;-0.792;2024-02-26T09:10:41;15.90;55.50
50955;DHT22;36966;48.064;-0.792;2024-02-26T09:13:01;15.80;55.50
50955;DHT22;36966;48.064;-0.792;2024-02-26T09:15:20;15.90;55.50
50955;DHT22;36966;48.064;-0.792;2024-02-26T09:17:39;15.90;55.60
50955;DHT22;36966;48.064;-0.792;2024-02-26T09:19:59;15.90;55.50
50955;DHT22;36966;48.064;-0.792;2024-02-26T09:22:18;15.90;55.50
50955;DHT22;36966;48.064;-0.792;2024-02-26T09:24:37;15.90;55.50
50955;DHT22;36966;48.064;-0.792;2024-02-26T09:26:56;15.80;55.50
50955;DHT22;36966;48.064;-0.792;2024-02-26T09:29:16;15.90;55.40
50955;DHT22;36966;48.064;-0.792;2024-02-26T09:31:35;15.90;55.40
50955;DHT22;36966;48.064;-0.792;2024-02-26T09:33:54;15.90;55.40
50955;DHT22;36966;48.064;-0.792;2024-02-26T09:36:13;15.90;55.40
50955;DHT22;36966;48.064;-0.792;2024-02-26T09:38:32;15.90;55.50
50955;DHT22;36966;48.064;-0.792;2024-02-26T09:40:56;15.90;55.50
50955;DHT22;36966;48.064;-0.792;2024-02-26T09:43:16;15.80;55.40
50955;DHT22;36966;48.064;-0.792;2024-02-26T09:45:36;15.90;55.40
50955;DHT22;36966;48.064;-0.792;2024-02-26T09:47:55;15.90;55.40
50955;DHT22;36966;48.064;-0.792;2024-02-26T09:50:15;15.80;55.40
50955;DHT22;36966;48.064;-0.792;2024-02-26T09:52:37;15.80;55.30
50955;DHT22;36966;48.064;-0.792;2024-02-26T09:54:56;15.80;55.30
50955;DHT22;36966;48.064;-0.792;2024-02-26T09:57:16;15.80;55.40
50955;DHT22;36966;48.064;-0.792;2024-02-26T09:59:39;15.80;55.30
50955;DHT22;36966;48.064;-0.792;2024-02-26T10:01:58;15.80;55.30
50955;DHT22;36966;48.064;-0.792;2024-02-26T10:04:19;15.80;55.20
50955;DHT22;36966;48.064;-0.792;2024-02-26T10:06:39;15.80;55.30
50955;DHT22;36966;48.064;-0.792;2024-02-26T10:08:59;15.80;55.30
50955;DHT22;36966;48.064;-0.792;2024-02-26T10:11:18;15.70;55.30
50955;DHT22;36966;48.064;-0.792;2024-02-26T10:13:38;15.70;55.30
50955;DHT22;36966;48.064;-0.792;2024-02-26T10:15:57;15.70;55.30
50955;DHT22;36966;48.064;-0.792;2024-02-26T10:18:17;15.70;55.30
50955;DHT22;36966;48.064;-0.792;2024-02-26T10:20:37;15.80;55.10
50955;DHT22;36966;48.064;-0.792;2024-02-26T10:22:56;15.80;55.00
50955;DHT22;36966;48.064;-0.792;2024-02-26T10:25:15;15.80;54.80
50955;DHT22;36966;48.064;-0.792;2024-02-26T10:27:35;15.70;55.00
50955;DHT22;36966;48.064;-0.792;2024-02-26T10:29:56;15.70;55.00
50955;DHT22;36966;48.064;-0.792;2024-02-26T10:32:15;15.70;55.00
50955;DHT22;36966;48.064;-0.792;2024-02-26T10:34:35;15.70;55.00
50955;DHT22;36966;48.064;-0.792;2024-02-26T10:36:56;15.70;54.90
50955;DHT22;36966;48.064;-0.792;2024-02-26T10:39:15;15.70;54.90
50955;DHT22;36966;48.064;-0.792;2024-02-26T10:41:35;15.80;54.60
50955;DHT22;36966;48.064;-0.792;2024-02-26T10:43:54;15.70;54.80
50955;DHT22;36966;48.064;-0.792;2024-02-26T10:46:13;15.70;54.80
50955;DHT22;36966;48.064;-0.792;2024-02-26T10:48:33;15.70;54.80
50955;DHT22;36966;48.064;-0.792;2024-02-26T10:50:52;15.70;54.70
50955;DHT22;36966;48.064;-0.792;2024-02-26T10:53:16;15.70;54.60
50955;DHT22;36966;48.064;-0.792;2024-02-26T10:55:36;15.70;54.50
50955;DHT22;36966;48.064;-0.792;2024-02-26T10:57:56;15.70;54.60
50955;DHT22;36966;48.064;-0.792;2024-02-26T11:00:16;15.70;54.60
50955;DHT22;36966;48.064;-0.792;2024-02-26T11:02:35;15.70;54.60
50955;DHT22;36966;48.064;-0.792;2024-02-26T11:04:55;15.80;54.40
50955;DHT22;36966;48.064;-0.792;2024-02-26T11:07:14;15.80;54.40
50955;DHT22;36966;48.064;-0.792;2024-02-26T11:09:34;15.70;54.40
50955;DHT22;36966;48.064;-0.792;2024-02-26T11:11:55;15.70;54.60
50955;DHT22;36966;48.064;-0.792;2024-02-26T11:14:15;15.30;54.80
50955;DHT22;36966;48.064;-0.792;2024-02-26T11:16:35;14.70;58.20
50955;DHT22;36966;48.064;-0.792;2024-02-26T11:18:55;14.80;56.70
50955;DHT22;36966;48.064;-0.792;2024-02-26T11:21:15;14.70;57.00
50955;DHT22;36966;48.064;-0.792;2024-02-26T11:23:34;15.00;58.60
50955;DHT22;36966;48.064;-0.792;2024-02-26T11:25:56;15.10;57.20
50955;DHT22;36966;48.064;-0.792;2024-02-26T11:28:19;15.30;57.80
50955;DHT22;36966;48.064;-0.792;2024-02-26T11:30:40;15.40;57.60
50955;DHT22;36966;48.064;-0.792;2024-02-26T11:33:01;15.70;55.80
50955;DHT22;36966;48.064;-0.792;2024-02-26T11:35:20;15.70;56.80
50955;DHT22;36966;48.064;-0.792;2024-02-26T11:37:40;15.30;55.90
50955;DHT22;36966;48.064;-0.792;2024-02-26T11:39:59;15.00;57.70
50955;DHT22;36966;48.064;-0.792;2024-02-26T11:42:23;14.90;58.00
50955;DHT22;36966;48.064;-0.792;2024-02-26T11:44:42;15.10;57.50
50955;DHT22;36966;48.064;-0.792;2024-02-26T11:47:20;15.00;56.80
50955;DHT22;36966;48.064;-0.792;2024-02-26T11:49:40;15.00;57.30
50955;DHT22;36966;48.064;-0.792;2024-02-26T11:51:59;14.80;57.10
50955;DHT22;36966;48.064;-0.792;2024-02-26T11:57:01;14.30;58.10
50955;DHT22;36966;48.064;-0.792;2024-02-26T11:59:37;14.20;58.70
50955;DHT22;36966;48.064;-0.792;2024-02-26T12:01:56;14.20;58.20
50955;DHT22;36966;48.064;-0.792;2024-02-26T12:04:26;14.20;58.50
50955;DHT22;36966;48.064;-0.792;2024-02-26T12:06:56;14.70;58.80
50955;DHT22;36966;48.064;-0.792;2024-02-26T12:09:30;15.20;57.30
50955;DHT22;36966;48.064;-0.792;2024-02-26T12:11:49;15.40;56.40
50955;DHT22;36966;48.064;-0.792;2024-02-26T12:14:09;15.40;56.10
50955;DHT22;36966;48.064;-0.792;2024-02-26T12:16:35;15.50;55.70
50955;DHT22;36966;48.064;-0.792;2024-02-26T12:18:55;15.70;55.40
50955;DHT22;36966;48.064;-0.792;2024-02-26T12:21:14;15.70;55.10
50955;DHT22;36966;48.064;-0.792;2024-02-26T12:23:34;15.60;54.90
50955;DHT22;36966;48.064;-0.792;2024-02-26T12:25:54;15.70;55.10
50955;DHT22;36966;48.064;-0.792;2024-02-26T12:28:17;15.70;54.80
50955;DHT22;36966;48.064;-0.792;2024-02-26T12:30:36;15.80;54.70
50955;DHT22;36966;48.064;-0.792;2024-02-26T12:32:55;15.80;54.60
50955;DHT22;36966;48.064;-0.792;2024-02-26T12:35:16;15.80;53.80
50955;DHT22;36966;48.064;-0.792;2024-02-26T12:37:36;15.80;54.60
50955;DHT22;36966;48.064;-0.792;2024-02-26T12:39:56;15.70;54.40
50955;DHT22;36966;48.064;-0.792;2024-02-26T12:42:16;15.70;54.60
50955;DHT22;36966;48.064;-0.792;2024-02-26T12:44:35;15.80;54.40
50955;DHT22;36966;48.064;-0.792;2024-02-26T12:47:04;15.80;54.30
50955;DHT22;36966;48.064;-0.792;2024-02-26T12:49:23;15.90;54.30
50955;DHT22;36966;48.064;-0.792;2024-02-26T12:51:44;15.90;54.10
50955;DHT22;36966;48.064;-0.792;2024-02-26T12:54:04;15.80;53.50
50955;DHT22;36966;48.064;-0.792;2024-02-26T12:56:24;15.80;54.40
50955;DHT22;36966;48.064;-0.792;2024-02-26T12:58:45;15.80;54.20
50955;DHT22;36966;48.064;-0.792;2024-02-26T13:01:06;15.80;54.10
50955;DHT22;36966;48.064;-0.792;2024-02-26T13:03:25;15.80;53.70
50955;DHT22;36966;48.064;-0.792;2024-02-26T13:05:46;15.90;54.10
50955;DHT22;36966;48.064;-0.792;2024-02-26T13:08:06;15.80;54.00
50955;DHT22;36966;48.064;-0.792;2024-02-26T13:10:26;15.80;54.10
50955;DHT22;36966;48.064;-0.792;2024-02-26T13:12:46;15.80;53.80
50955;DHT22;36966;48.064;-0.792;2024-02-26T13:15:05;15.80;54.00
50955;DHT22;36966;48.064;-0.792;2024-02-26T13:17:25;15.90;54.00
50955;DHT22;36966;48.064;-0.792;2024-02-26T13:19:50;15.90;53.70
50955;DHT22;36966;48.064;-0.792;2024-02-26T13:22:10;15.90;53.80
50955;DHT22;36966;48.064;-0.792;2024-02-26T13:24:29;15.90;53.90
50955;DHT22;36966;48.064;-0.792;2024-02-26T13:26:56;15.90;53.90
50955;DHT22;36966;48.064;-0.792;2024-02-26T13:29:18;15.90;53.60
50955;DHT22;36966;48.064;-0.792;2024-02-26T13:31:40;15.80;53.90
50955;DHT22;36966;48.064;-0.792;2024-02-26T13:33:59;15.80;53.70
50955;DHT22;36966;48.064;-0.792;2024-02-26T13:36:19;15.80;54.00
50955;DHT22;36966;48.064;-0.792;2024-02-26T13:38:38;15.80;53.70
50955;DHT22;36966;48.064;-0.792;2024-02-26T13:40:57;15.80;53.90
50955;DHT22;36966;48.064;-0.792;2024-02-26T13:43:17;15.90;53.70
50955;DHT22;36966;48.064;-0.792;2024-02-26T13:45:37;15.90;53.70
50955;DHT22;36966;48.064;-0.792;2024-02-26T13:48:03;15.80;53.40
50955;DHT22;36966;48.064;-0.792;2024-02-26T13:50:22;15.80;53.80
50955;DHT22;36966;48.064;-0.792;2024-02-26T13:52:43;15.80;53.80
50955;DHT22;36966;48.064;-0.792;2024-02-26T13:55:02;15.80;53.80
50955;DHT22;36966;48.064;-0.792;2024-02-26T13:57:21;15.80;53.50
50955;DHT22;36966;48.064;-0.792;2024-02-26T13:59:41;15.90;53.50
50955;DHT22;36966;48.064;-0.792;2024-02-26T14:02:01;15.90;53.70
50955;DHT22;36966;48.064;-0.792;2024-02-26T14:04:20;15.80;53.40
50955;DHT22;36966;48.064;-0.792;2024-02-26T14:06:40;15.90;53.60
50955;DHT22;36966;48.064;-0.792;2024-02-26T14:08:59;15.80;53.60
50955;DHT22;36966;48.064;-0.792;2024-02-26T14:11:18;15.80;53.60
50955;DHT22;36966;48.064;-0.792;2024-02-26T14:13:38;15.80;53.60
50955;DHT22;36966;48.064;-0.792;2024-02-26T14:15:57;15.80;53.60
50955;DHT22;36966;48.064;-0.792;2024-02-26T14:18:16;15.80;53.50
50955;DHT22;36966;48.064;-0.792;2024-02-26T14:20:35;15.70;52.70
50955;DHT22;36966;48.064;-0.792;2024-02-26T14:22:54;15.70;53.20
50955;DHT22;36966;48.064;-0.792;2024-02-26T14:25:14;15.70;53.90
50955;DHT22;36966;48.064;-0.792;2024-02-26T14:27:33;15.70;53.80
50955;DHT22;36966;48.064;-0.792;2024-02-26T14:29:52;15.80;53.30
50955;DHT22;36966;48.064;-0.792;2024-02-26T14:32:14;15.80;53.40